createdAt,value
2018-12-18T00:01:12.318Z,7.20
2018-12-18T00:03:50.390Z,8.00
2018-12-18T00:06:30.940Z,6.97
2018-12-18T00:09:01.879Z,7.17
2018-12-18T00:11:35.748Z,6.97
2018-12-18T00:14:11.365Z,7.07
2018-12-18T00:16:44.224Z,7.30
2018-12-18T00:19:18.953Z,7.07
2018-12-18T00:21:53.323Z,7.50
2018-12-18T00:24:29.868Z,7.50
2018-12-18T00:27:02.461Z,7.73
2018-12-18T00:29:37.563Z,7.67
2018-12-18T00:32:13.402Z,7.20
2018-12-18T00:34:47.485Z,8.43
2018-12-18T00:37:21.856Z,7.70
2018-12-18T00:39:55.998Z,7.63
2018-12-18T00:42:32.542Z,7.20
2018-12-18T00:45:13.604Z,7.53
2018-12-18T00:47:51.735Z,7.03
2018-12-18T00:50:20.836Z,7.83
2018-12-18T00:53:01.889Z,7.30
2018-12-18T00:55:44.215Z,7.60
2018-12-18T00:58:21.922Z,7.90
2018-12-18T01:00:57.946Z,7.23
2018-12-18T01:03:32.315Z,6.83
2018-12-18T01:06:06.203Z,7.20
2018-12-18T01:08:41.528Z,7.27
2018-12-18T01:11:14.706Z,7.47
2018-12-18T01:13:49.702Z,9.27
2018-12-18T01:16:31.000Z,7.20
2018-12-18T01:19:05.248Z,7.13
2018-12-18T01:21:40.002Z,7.33
2018-12-18T01:24:14.296Z,6.83
2018-12-18T01:26:50.141Z,7.90
2018-12-18T01:29:24.983Z,7.80
2018-12-18T01:32:05.966Z,6.93
2018-12-18T01:34:40.528Z,7.17
2018-12-18T01:37:15.948Z,6.67
2018-12-18T01:39:50.308Z,6.60
2018-12-18T01:42:26.537Z,6.27
2018-12-18T01:45:01.016Z,6.30
2018-12-18T01:47:35.737Z,6.50
2018-12-18T01:50:09.873Z,6.47
2018-12-18T01:52:47.948Z,7.40
2018-12-18T01:55:23.933Z,7.33
2018-12-18T01:57:56.722Z,8.13
2018-12-18T02:00:31.957Z,7.40
2018-12-18T02:03:07.098Z,7.67
2018-12-18T02:05:39.892Z,7.83
2018-12-18T02:08:14.482Z,7.03
2018-12-18T02:10:46.789Z,7.97
2018-12-18T02:13:19.521Z,8.90
2018-12-18T02:15:50.370Z,8.50
2018-12-18T02:18:22.504Z,9.87
2018-12-18T02:20:59.415Z,10.37
2018-12-18T02:23:32.320Z,8.83
2018-12-18T02:26:02.931Z,8.73
2018-12-18T02:28:37.793Z,8.37
2018-12-18T02:31:12.259Z,10.33
2018-12-18T02:33:48.164Z,10.80
2018-12-18T02:36:21.108Z,9.90
2018-12-18T02:38:54.071Z,10.97
2018-12-18T02:41:31.251Z,11.03
2018-12-18T02:44:07.221Z,10.57
2018-12-18T02:46:39.239Z,11.47
2018-12-18T02:49:13.893Z,11.27
2018-12-18T02:51:56.205Z,11.30
2018-12-18T02:54:30.725Z,11.93
2018-12-18T02:57:04.957Z,11.37
2018-12-18T02:59:47.681Z,11.27
2018-12-18T03:02:22.552Z,10.90
2018-12-18T03:04:57.467Z,11.00
2018-12-18T03:07:30.154Z,10.40
2018-12-18T03:10:04.597Z,11.13
2018-12-18T03:12:41.532Z,11.27
2018-12-18T03:15:16.667Z,10.00
2018-12-18T03:17:51.450Z,10.73
2018-12-18T03:20:24.576Z,11.30
2018-12-18T03:22:59.782Z,11.37
2018-12-18T03:25:32.429Z,10.87
2018-12-18T03:28:06.944Z,10.80
2018-12-18T03:30:41.948Z,10.90
2018-12-18T03:33:22.880Z,10.53
2018-12-18T03:35:57.364Z,11.43
2018-12-18T03:38:34.244Z,9.47
2018-12-18T03:41:06.338Z,10.33
2018-12-18T03:43:39.504Z,10.90
2018-12-18T03:46:15.592Z,10.63
2018-12-18T03:48:50.866Z,9.17
2018-12-18T03:51:25.236Z,10.30
2018-12-18T03:54:00.183Z,10.17
2018-12-18T03:56:33.072Z,10.23
2018-12-18T03:59:11.608Z,10.23
2018-12-18T04:01:45.844Z,10.53
2018-12-18T04:04:21.039Z,10.70
2018-12-18T04:06:55.468Z,9.93
2018-12-18T04:09:27.363Z,10.47
2018-12-18T04:12:14.657Z,10.63
2018-12-18T04:14:48.933Z,10.90
2018-12-18T04:17:23.193Z,10.93
2018-12-18T04:19:53.657Z,11.10
2018-12-18T04:22:28.412Z,12.57
2018-12-18T04:25:03.578Z,13.03
2018-12-18T04:27:41.297Z,12.47
2018-12-18T04:30:14.028Z,11.80
2018-12-18T04:32:48.492Z,11.00
2018-12-18T04:35:31.197Z,11.20
2018-12-18T04:38:04.114Z,11.00
2018-12-18T04:40:39.629Z,10.97
2018-12-18T04:43:19.892Z,10.20
2018-12-18T04:45:53.525Z,10.60
2018-12-18T04:48:25.547Z,9.97
2018-12-18T04:50:57.452Z,9.97
2018-12-18T04:53:30.950Z,10.00
2018-12-18T04:56:12.485Z,10.10
2018-12-18T04:58:49.044Z,10.00
2018-12-18T05:01:23.484Z,10.10
2018-12-18T05:03:58.119Z,10.50
2018-12-18T05:06:32.158Z,9.80
2018-12-18T05:09:10.550Z,11.00
2018-12-18T05:11:51.219Z,10.63
2018-12-18T05:14:27.296Z,11.30
2018-12-18T05:17:02.496Z,10.70
2018-12-18T05:19:34.859Z,9.53
2018-12-18T05:22:07.179Z,9.43
2018-12-18T05:24:41.516Z,10.33
2018-12-18T05:27:27.545Z,10.37
2018-12-18T05:30:00.242Z,10.43
2018-12-18T05:32:33.234Z,11.20
2018-12-18T05:35:07.259Z,11.57
2018-12-18T05:37:44.719Z,10.27
2018-12-18T05:40:17.048Z,10.43
2018-12-18T05:42:51.306Z,10.00
2018-12-18T05:45:31.209Z,11.40
2018-12-18T05:48:02.557Z,11.07
2018-12-18T05:50:39.222Z,17.07
2018-12-18T05:53:12.060Z,12.10
2018-12-18T05:55:43.842Z,12.43
2018-12-18T05:58:12.887Z,11.97
2018-12-18T06:00:42.172Z,10.23
2018-12-18T06:03:21.320Z,10.77
2018-12-18T06:06:06.933Z,10.93
2018-12-18T06:08:41.204Z,12.30
2018-12-18T06:11:22.869Z,12.00
2018-12-18T06:13:55.565Z,13.57
2018-12-18T06:16:30.050Z,13.07
2018-12-18T06:19:02.566Z,13.40
2018-12-18T06:21:37.161Z,12.90
2018-12-18T06:24:11.590Z,13.37
2018-12-18T06:26:51.648Z,13.30
2018-12-18T06:29:30.977Z,11.53
2018-12-18T06:32:04.002Z,11.33
2018-12-18T06:34:43.660Z,11.37
2018-12-18T06:37:20.188Z,12.07
2018-12-18T06:40:00.323Z,11.60
2018-12-18T06:42:36.885Z,10.90
2018-12-18T06:45:17.888Z,11.37
2018-12-18T06:47:58.902Z,10.23
2018-12-18T06:50:41.748Z,11.00
2018-12-18T06:53:22.203Z,12.10
2018-12-18T06:55:57.049Z,11.97
2018-12-18T06:58:35.478Z,13.23
2018-12-18T07:01:12.206Z,13.03
2018-12-18T07:03:44.889Z,12.43
2018-12-18T07:06:21.580Z,13.17
2018-12-18T07:08:59.336Z,12.87
2018-12-18T07:11:40.514Z,13.40
2018-12-18T07:14:16.625Z,12.60
2018-12-18T07:16:48.911Z,12.00
2018-12-18T07:19:21.995Z,11.70
2018-12-18T07:21:57.185Z,12.90
2018-12-18T07:24:32.522Z,13.37
2018-12-18T07:27:14.847Z,12.17
2018-12-18T07:29:49.738Z,14.03
2018-12-18T07:32:31.321Z,13.73
2018-12-18T07:35:04.715Z,13.90
2018-12-18T07:37:38.968Z,13.23
2018-12-18T07:40:11.714Z,14.10
2018-12-18T07:42:49.696Z,13.77
2018-12-18T07:45:24.821Z,13.50
2018-12-18T07:48:04.845Z,11.93
2018-12-18T07:50:38.198Z,12.03
2018-12-18T07:53:24.383Z,11.53
2018-12-18T07:58:46.005Z,12.87
2018-12-18T08:01:21.992Z,13.17
2018-12-18T08:03:56.492Z,12.17
2018-12-18T08:06:27.900Z,11.90
2018-12-18T08:09:00.271Z,11.73
2018-12-18T08:11:30.592Z,12.87
2018-12-18T08:14:05.285Z,12.17
2018-12-18T08:19:35.289Z,11.50
2018-12-18T08:22:10.534Z,13.50
2018-12-18T08:24:51.496Z,13.33
2018-12-18T08:30:09.447Z,14.63
2018-12-18T08:32:44.976Z,14.10
2018-12-18T08:35:18.460Z,13.77
2018-12-18T08:37:57.775Z,14.60
2018-12-18T08:40:32.359Z,14.40
2018-12-18T08:43:20.027Z,14.40
2018-12-18T08:45:58.105Z,14.53
2018-12-18T08:48:34.378Z,12.63
2018-12-18T08:51:13.217Z,12.93
2018-12-18T08:56:43.330Z,12.37
2018-12-18T09:05:18.963Z,11.90
2018-12-18T09:07:52.241Z,12.07
2018-12-18T09:10:25.174Z,12.67
2018-12-18T09:12:59.743Z,12.83
2018-12-18T09:15:43.912Z,11.30
2018-12-18T09:18:18.696Z,12.37
2018-12-18T09:20:58.149Z,12.50
2018-12-18T09:23:33.350Z,12.40
2018-12-18T09:26:08.543Z,12.90
2018-12-18T09:28:43.381Z,12.03
2018-12-18T09:31:17.710Z,11.83
2018-12-18T09:33:59.702Z,12.63
2018-12-18T09:36:28.503Z,12.07
2018-12-18T09:39:05.815Z,11.77
2018-12-18T09:41:44.341Z,11.70
2018-12-18T09:44:19.295Z,11.17
2018-12-18T09:46:55.151Z,9.60
2018-12-18T09:49:40.234Z,10.53
2018-12-18T09:55:02.875Z,8.40
2018-12-18T09:57:44.944Z,11.80
2018-12-18T10:00:20.000Z,12.07
2018-12-18T10:02:54.954Z,12.13
2018-12-18T10:05:28.244Z,14.57
2018-12-18T10:08:04.012Z,14.13
2018-12-18T10:10:39.068Z,13.30
2018-12-18T10:13:16.482Z,14.47
2018-12-18T10:15:50.748Z,16.00
2018-12-18T10:18:36.318Z,14.77
2018-12-18T10:21:17.563Z,13.93
2018-12-18T10:23:52.025Z,13.33
2018-12-18T10:26:22.446Z,14.67
2018-12-18T10:29:01.155Z,15.10
2018-12-18T10:31:36.054Z,15.27
2018-12-18T10:34:14.705Z,13.83
2018-12-18T10:39:41.851Z,15.97
2018-12-18T10:42:11.339Z,14.80
2018-12-18T10:44:47.457Z,15.43
2018-12-18T10:47:24.514Z,13.00
2018-12-18T10:50:07.952Z,13.37
2018-12-18T10:52:42.970Z,13.30
2018-12-18T10:55:11.762Z,13.40
2018-12-18T10:57:51.209Z,13.77
2018-12-18T11:00:32.483Z,19.13
2018-12-18T11:03:07.316Z,14.53
2018-12-18T11:05:41.761Z,14.30
2018-12-18T11:08:17.327Z,14.10
2018-12-18T11:10:52.511Z,15.70
2018-12-18T11:13:34.834Z,14.77
2018-12-18T11:16:07.870Z,15.60
2018-12-18T11:18:40.657Z,15.37
2018-12-18T11:21:09.636Z,14.30
2018-12-18T11:23:43.666Z,14.07
2018-12-18T11:26:14.291Z,16.63
2018-12-18T11:28:56.457Z,17.20
2018-12-18T11:31:33.238Z,18.73
2018-12-18T11:34:08.378Z,20.20
2018-12-18T11:36:41.446Z,20.70
2018-12-18T11:39:22.477Z,19.47
2018-12-18T11:41:57.057Z,20.57
2018-12-18T11:44:31.151Z,21.50
2018-12-18T11:47:04.156Z,20.80
2018-12-18T11:55:19.326Z,17.83
2018-12-18T11:57:57.224Z,18.47
2018-12-18T12:00:37.117Z,19.57
2018-12-18T12:03:12.133Z,19.93
2018-12-18T12:06:00.425Z,18.50
2018-12-18T12:08:37.458Z,18.50
2018-12-18T12:11:10.666Z,17.30
2018-12-18T12:13:43.565Z,16.00
2018-12-18T12:16:19.742Z,16.60
2018-12-18T12:18:55.124Z,15.00
2018-12-18T12:21:30.828Z,17.03
2018-12-18T12:24:05.747Z,17.63
2018-12-18T12:26:44.579Z,16.20
2018-12-18T12:29:26.532Z,16.23
2018-12-18T12:32:01.490Z,16.47
2018-12-18T12:34:33.674Z,16.00
2018-12-18T12:37:05.963Z,16.27
2018-12-18T12:39:39.077Z,15.27
2018-12-18T12:42:19.256Z,13.83
2018-12-18T12:44:55.270Z,14.03
2018-12-18T12:47:28.554Z,13.37
2018-12-18T12:50:09.838Z,13.20
2018-12-18T12:52:45.232Z,14.57
2018-12-18T12:55:18.138Z,14.47
2018-12-18T12:57:54.221Z,13.10
2018-12-18T13:00:29.862Z,12.93
2018-12-18T13:03:06.485Z,12.87
2018-12-18T13:05:39.513Z,14.07
2018-12-18T13:08:18.509Z,13.37
2018-12-18T13:10:53.659Z,13.10
2018-12-18T13:13:23.559Z,13.17
2018-12-18T13:15:56.748Z,13.93
2018-12-18T13:18:29.703Z,12.27
2018-12-18T13:21:02.544Z,13.17
2018-12-18T13:23:37.391Z,12.27
2018-12-18T13:26:12.235Z,11.63
2018-12-18T13:28:47.660Z,13.03
2018-12-18T13:31:20.523Z,13.20
2018-12-18T13:33:56.081Z,12.97
2018-12-18T13:36:31.366Z,11.93
2018-12-18T13:39:07.280Z,11.37
2018-12-18T13:41:43.035Z,10.90
2018-12-18T13:44:16.628Z,10.87
2018-12-18T13:46:50.147Z,9.97
2018-12-18T13:49:29.177Z,11.20
2018-12-18T13:52:03.358Z,11.07
2018-12-18T13:54:39.956Z,11.73
2018-12-18T13:57:15.377Z,11.13
2018-12-18T13:59:57.259Z,11.20
2018-12-18T14:02:38.907Z,10.70
2018-12-18T14:05:13.500Z,11.63
2018-12-18T14:07:48.091Z,12.33
2018-12-18T14:10:23.444Z,11.17
2018-12-18T14:12:57.646Z,11.73
2018-12-18T14:15:32.061Z,12.23
2018-12-18T14:18:06.707Z,10.57
2018-12-18T14:23:28.770Z,12.50
2018-12-18T14:25:57.923Z,11.77
2018-12-18T14:28:35.506Z,12.93
2018-12-18T14:31:08.370Z,10.80
2018-12-18T14:33:51.500Z,11.93
2018-12-18T14:36:26.753Z,12.37
2018-12-18T14:39:04.743Z,13.07
2018-12-18T14:41:41.301Z,12.40
2018-12-18T14:44:17.700Z,13.47
2018-12-18T14:46:53.061Z,13.50
2018-12-18T14:49:22.024Z,13.73
2018-12-18T14:51:54.656Z,12.97
2018-12-18T14:54:26.770Z,12.53
2018-12-18T14:56:58.768Z,13.43
2018-12-18T14:59:28.724Z,13.70
2018-12-18T15:01:59.263Z,13.10
2018-12-18T15:04:34.062Z,14.20
2018-12-18T15:07:07.134Z,14.50
2018-12-18T15:09:40.157Z,13.33
2018-12-18T15:12:20.723Z,13.37
2018-12-18T15:14:54.941Z,13.33
2018-12-18T15:17:30.543Z,13.73
2018-12-18T15:20:09.470Z,13.57
2018-12-18T15:22:45.843Z,12.63
2018-12-18T15:25:20.353Z,15.37
2018-12-18T15:27:55.279Z,13.67
2018-12-18T15:30:27.687Z,12.77
2018-12-18T15:33:09.661Z,12.93
2018-12-18T15:35:43.530Z,12.20
2018-12-18T15:38:18.088Z,12.83
2018-12-18T15:40:51.107Z,12.13
2018-12-18T15:43:26.959Z,14.00
2018-12-18T15:49:10.628Z,11.53
2018-12-18T15:51:47.489Z,12.00
2018-12-18T15:54:25.848Z,12.33
2018-12-18T15:59:43.936Z,12.23
2018-12-18T16:02:15.404Z,12.73
2018-12-18T16:04:48.600Z,13.33
2018-12-18T16:07:23.845Z,14.63
2018-12-18T16:10:02.415Z,11.63
2018-12-18T16:12:42.072Z,13.07
2018-12-18T16:18:09.957Z,12.80
2018-12-18T16:20:48.462Z,12.87
2018-12-18T16:23:21.815Z,12.70
2018-12-18T16:25:54.047Z,13.67
2018-12-18T16:28:26.795Z,13.83
2018-12-18T16:31:01.428Z,12.57
2018-12-18T16:33:36.784Z,11.80
2018-12-18T16:36:13.371Z,12.20
2018-12-18T16:38:49.426Z,12.37
2018-12-18T16:41:18.766Z,12.10
2018-12-18T16:43:48.094Z,12.10
2018-12-18T16:46:23.428Z,12.43
2018-12-18T16:48:58.485Z,11.97
2018-12-18T16:51:37.784Z,12.10
2018-12-18T16:54:18.650Z,12.47
2018-12-18T16:57:04.900Z,11.93
2018-12-18T16:59:44.495Z,11.90
2018-12-18T17:02:17.569Z,10.83
2018-12-18T17:04:56.198Z,11.17
2018-12-18T17:07:31.174Z,11.63
2018-12-18T17:10:09.930Z,11.00
2018-12-18T17:12:50.711Z,10.87
2018-12-18T17:15:34.562Z,10.63
2018-12-18T17:18:06.854Z,12.30
2018-12-18T17:20:45.994Z,12.60
2018-12-18T17:23:19.235Z,11.23
2018-12-18T17:25:54.224Z,12.13
2018-12-18T17:28:34.092Z,11.20
2018-12-18T17:31:06.220Z,12.00
2018-12-18T17:33:51.581Z,11.37
2018-12-18T17:36:32.934Z,11.97
2018-12-18T17:39:07.705Z,12.43
2018-12-18T17:41:42.736Z,13.87
2018-12-18T17:46:59.590Z,13.00
2018-12-18T17:49:31.036Z,11.50
2018-12-18T17:52:00.527Z,13.13
2018-12-18T17:54:34.020Z,12.83
2018-12-18T17:57:19.758Z,12.53
2018-12-18T17:59:54.547Z,12.17
2018-12-18T18:02:29.247Z,12.27
2018-12-18T18:05:09.776Z,11.33
2018-12-18T18:07:45.462Z,12.87
2018-12-18T18:10:19.263Z,11.83
2018-12-18T18:12:58.341Z,12.80
2018-12-18T18:15:34.342Z,11.30
2018-12-18T18:18:06.758Z,11.27
2018-12-18T18:20:39.183Z,12.97
2018-12-18T18:23:13.836Z,11.70
2018-12-18T18:25:57.443Z,12.47
2018-12-18T18:28:31.781Z,11.30
2018-12-18T18:31:04.970Z,12.77
2018-12-18T18:33:39.789Z,12.53
2018-12-18T18:36:18.592Z,11.37
2018-12-18T18:38:57.680Z,11.67
2018-12-18T18:41:36.642Z,12.07
2018-12-18T18:44:11.096Z,12.37
2018-12-18T18:46:46.163Z,12.10
2018-12-18T18:49:20.866Z,13.57
2018-12-18T18:51:59.803Z,12.50
2018-12-18T18:54:32.638Z,13.37
2018-12-18T18:57:13.698Z,14.47
2018-12-18T18:59:45.947Z,10.47
2018-12-18T19:02:18.096Z,12.97
2018-12-18T19:04:51.321Z,12.63
2018-12-18T19:07:35.690Z,13.20
2018-12-18T19:10:08.699Z,12.70
2018-12-18T19:12:43.220Z,12.70
2018-12-18T19:15:19.538Z,12.43
2018-12-18T19:17:54.054Z,12.40
2018-12-18T19:20:28.593Z,11.93
2018-12-18T19:23:07.262Z,12.40
2018-12-18T19:25:40.013Z,12.27
2018-12-18T19:28:12.691Z,12.03
2018-12-18T19:30:51.227Z,12.67
2018-12-18T19:33:36.946Z,12.93
2018-12-18T19:36:14.508Z,12.93
2018-12-18T19:38:49.783Z,12.63
2018-12-18T19:41:24.074Z,13.07
2018-12-18T19:44:03.022Z,12.73
2018-12-18T19:46:38.264Z,12.93
2018-12-18T19:49:11.987Z,14.03
2018-12-18T19:51:47.911Z,12.23
2018-12-18T19:54:21.610Z,13.50
2018-12-18T19:56:56.914Z,13.07
2018-12-18T19:59:31.715Z,13.43
2018-12-18T20:02:04.391Z,14.10
2018-12-18T20:04:38.591Z,13.77
2018-12-18T20:07:19.907Z,14.17
2018-12-18T20:09:56.211Z,14.63
2018-12-18T20:12:32.324Z,14.80
2018-12-18T20:15:08.316Z,14.93
2018-12-18T20:17:41.717Z,14.47
2018-12-18T20:20:17.065Z,14.53
2018-12-18T20:22:50.470Z,14.67
2018-12-18T20:25:24.977Z,14.67
2018-12-18T20:28:00.413Z,14.10
2018-12-18T20:30:33.225Z,13.70
2018-12-18T20:33:06.272Z,15.20
2018-12-18T20:35:43.455Z,14.83
2018-12-18T20:38:22.156Z,14.30
2018-12-18T20:40:57.458Z,15.47
2018-12-18T20:43:39.455Z,15.70
2018-12-18T20:46:18.918Z,14.97
2018-12-18T20:48:51.940Z,14.10
2018-12-18T20:51:24.470Z,13.93
2018-12-18T20:53:59.396Z,14.53
2018-12-18T20:56:32.642Z,13.97
2018-12-18T20:59:09.850Z,14.70
2018-12-18T21:01:43.540Z,15.27
2018-12-18T21:04:17.728Z,16.40
2018-12-18T21:06:54.491Z,16.70
2018-12-18T21:09:29.896Z,16.67
2018-12-18T21:12:02.129Z,19.50
2018-12-18T21:14:41.418Z,15.60
2018-12-18T21:17:15.178Z,16.83
2018-12-18T21:19:48.296Z,14.90
2018-12-18T21:22:17.298Z,15.80
2018-12-18T21:24:49.867Z,16.30
2018-12-18T21:27:26.231Z,16.70
2018-12-18T21:29:58.518Z,18.53
2018-12-18T21:32:29.399Z,17.87
2018-12-18T21:35:06.471Z,18.30
2018-12-18T21:37:42.992Z,16.50
2018-12-18T21:40:18.263Z,16.27
2018-12-18T21:42:52.398Z,16.87
2018-12-18T21:45:25.077Z,16.30
2018-12-18T21:47:59.636Z,17.60
2018-12-18T21:50:35.686Z,14.23
2018-12-18T21:53:04.771Z,13.40
2018-12-18T21:55:40.012Z,13.20
2018-12-18T21:58:09.606Z,16.13
2018-12-18T22:00:45.287Z,15.90
2018-12-18T22:03:19.835Z,17.10
2018-12-18T22:05:55.503Z,15.77
2018-12-18T22:08:26.394Z,16.93
2018-12-18T22:11:01.480Z,17.23
2018-12-18T22:13:36.370Z,17.10
2018-12-18T22:16:10.395Z,16.83
2018-12-18T22:18:43.300Z,17.13
2018-12-18T22:21:26.265Z,16.13
2018-12-18T22:23:59.678Z,17.63
2018-12-18T22:26:34.030Z,17.20
2018-12-18T22:29:07.605Z,16.43
2018-12-18T22:31:40.950Z,16.83
2018-12-18T22:34:15.310Z,16.53
2018-12-18T22:36:50.093Z,17.50
2018-12-18T22:42:27.153Z,16.90
2018-12-18T22:45:01.258Z,16.27
2018-12-18T22:47:33.933Z,17.90
2018-12-18T22:50:06.920Z,16.63
2018-12-18T22:52:46.381Z,16.57
2018-12-18T22:55:29.930Z,17.47
2018-12-18T22:58:02.964Z,17.30
2018-12-18T23:00:43.356Z,16.47
2018-12-18T23:03:18.253Z,18.27
2018-12-18T23:05:54.092Z,17.93
2018-12-18T23:08:24.042Z,16.27
2018-12-18T23:10:59.505Z,17.20
2018-12-18T23:13:32.266Z,15.53
2018-12-18T23:16:07.282Z,16.57
2018-12-18T23:18:37.754Z,16.97
2018-12-18T23:21:19.477Z,17.70
2018-12-18T23:23:51.757Z,16.37
2018-12-18T23:26:32.730Z,18.30
2018-12-18T23:29:13.479Z,16.33
2018-12-18T23:31:52.163Z,16.80
2018-12-18T23:34:32.870Z,17.60
2018-12-18T23:36:58.463Z,16.87
2018-12-18T23:39:32.923Z,15.87
2018-12-18T23:42:05.816Z,15.53
2018-12-18T23:44:40.788Z,14.70
2018-12-18T23:47:12.017Z,14.87
2018-12-18T23:49:42.758Z,13.27
2018-12-18T23:52:19.583Z,13.30
2018-12-18T23:54:51.608Z,12.40
2018-12-18T23:57:24.091Z,11.53
2018-12-18T23:59:57.041Z,12.07
